Time;durP1;ratioP1;P1;durP2;ratioP2;P2;SDS_P1;SDS_P2;PMS_P1;PMS_P2;Temp;Humidity;BMP_temperature;BMP_pressure;BME280_temperature;BME280_humidity;BME280_pressure;Samples;Min_cycle;Max_cycle;Signal;HPM_P1;HPM_P2
2023/10/13 00:02:06;;;;;;;9.50;6.53;;;20.50;70.80;;;;;;4859980;29;21162;-80
2023/10/13 00:04:36;;;;;;;6.40;5.90;;;20.50;69.70;;;;;;4853454;29;20469;-79
2023/10/13 00:07:08;;;;;;;6.67;6.17;;;20.40;69.30;;;;;;4858502;29;20867;-78
2023/10/13 00:09:39;;;;;;;7.47;5.60;;;20.40;67.90;;;;;;4855887;29;20503;-79
2023/10/13 00:12:13;;;;;;;6.80;6.03;;;20.30;66.80;;;;;;4854390;29;20461;-78
2023/10/13 00:14:45;;;;;;;7.03;6.33;;;20.40;67.10;;;;;;4853842;29;20464;-79
2023/10/13 00:17:20;;;;;;;6.83;5.90;;;20.30;66.80;;;;;;4855101;29;20454;-79
2023/10/13 00:19:52;;;;;;;6.17;5.50;;;20.30;66.40;;;;;;4861086;29;20481;-79
2023/10/13 00:22:22;;;;;;;6.30;5.90;;;20.20;66.30;;;;;;4857644;29;20579;-80
2023/10/13 00:24:58;;;;;;;8.53;6.47;;;20.20;67.10;;;;;;4849874;29;20483;-80
2023/10/13 00:27:30;;;;;;;6.70;6.10;;;20.20;65.80;;;;;;4857765;29;20823;-80
2023/10/13 00:30:22;;;;;;;6.40;6.00;;;20.20;64.90;;;;;;4856507;29;20496;-79
2023/10/13 00:32:56;;;;;;;7.33;6.73;;;20.20;65.60;;;;;;4859187;29;20500;-79
2023/10/13 00:35:29;;;;;;;6.70;6.20;;;20.20;65.60;;;;;;4853970;29;20496;-79
2023/10/13 00:37:59;;;;;;;6.90;6.40;;;20.20;65.20;;;;;;4858348;29;20457;-80
2023/10/13 00:40:51;;;;;;;6.40;5.97;;;20.10;64.20;;;;;;4852334;29;20489;-80
2023/10/13 00:43:35;;;;;;;6.53;6.03;;;20.20;65.00;;;;;;4856368;29;20470;-80
2023/10/13 00:46:07;;;;;;;6.53;6.00;;;20.20;66.00;;;;;;4864602;29;21114;-79
2023/10/13 00:48:45;;;;;;;5.90;5.60;;;20.20;65.70;;;;;;4861081;29;20553;-80
2023/10/13 00:51:32;;;;;;;7.20;6.73;;;20.10;64.90;;;;;;4862453;29;20493;-79
2023/10/13 00:54:07;;;;;;;7.57;6.87;;;20.10;65.80;;;;;;4862842;29;20519;-80
2023/10/13 00:56:40;;;;;;;7.43;6.53;;;20.10;65.40;;;;;;4857269;29;21735;-79
2023/10/13 00:59:09;;;;;;;7.40;6.67;;;20.00;64.20;;;;;;4856007;29;20463;-80
2023/10/13 01:01:40;;;;;;;6.47;6.03;;;20.00;65.80;;;;;;4858592;29;20487;-81
2023/10/13 01:04:12;;;;;;;6.60;6.20;;;20.10;65.50;;;;;;4863579;29;20472;-80
2023/10/13 01:06:40;;;;;;;7.27;6.70;;;20.10;66.20;;;;;;4864078;29;20559;-81
2023/10/13 01:09:13;;;;;;;6.27;5.97;;;20.00;65.40;;;;;;4861708;29;20488;-80
2023/10/13 01:11:44;;;;;;;7.00;6.53;;;20.00;66.80;;;;;;4856078;29;20477;-82
2023/10/13 01:14:14;;;;;;;6.73;6.23;;;20.00;65.30;;;;;;4857111;29;20465;-81
2023/10/13 01:16:43;;;;;;;6.90;6.33;;;20.00;65.60;;;;;;4858384;29;21221;-81
2023/10/13 01:19:14;;;;;;;7.43;6.80;;;20.00;66.60;;;;;;4856533;29;20452;-81
2023/10/13 01:21:41;;;;;;;7.27;6.67;;;20.00;66.30;;;;;;4855710;29;20479;-79
2023/10/13 01:24:13;;;;;;;7.20;6.70;;;20.00;65.80;;;;;;4856599;29;20473;-80
2023/10/13 01:26:42;;;;;;;7.50;6.10;;;19.90;65.60;;;;;;4854994;29;20539;-80
2023/10/13 01:29:14;;;;;;;7.03;6.47;;;19.90;65.30;;;;;;4855138;29;20492;-79
2023/10/13 01:31:45;;;;;;;6.43;6.03;;;19.90;65.60;;;;;;4851678;29;21876;-80
2023/10/13 01:34:19;;;;;;;7.37;6.93;;;19.90;66.00;;;;;;4855661;29;20503;-81
2023/10/13 01:36:47;;;;;;;7.83;7.10;;;19.90;66.30;;;;;;4857341;29;20463;-80
2023/10/13 01:39:17;;;;;;;8.60;6.80;;;19.90;66.20;;;;;;4855531;29;20465;-81
2023/10/13 01:41:44;;;;;;;7.10;6.70;;;19.90;67.00;;;;;;4853327;29;20506;-80
2023/10/13 01:44:12;;;;;;;7.53;6.83;;;19.80;65.30;;;;;;4855576;29;20989;-80
2023/10/13 01:46:42;;;;;;;6.97;6.43;;;19.80;65.60;;;;;;4858614;29;20465;-80
2023/10/13 01:49:11;;;;;;;7.17;6.67;;;19.80;65.10;;;;;;4855099;29;20864;-80
2023/10/13 01:51:39;;;;;;;6.80;6.40;;;19.70;64.10;;;;;;4855591;29;20488;-81
2023/10/13 01:54:11;;;;;;;8.07;7.37;;;19.70;64.00;;;;;;4850253;29;20587;-79
2023/10/13 01:56:42;;;;;;;7.47;6.97;;;19.60;65.10;;;;;;4852392;29;20473;-80
2023/10/13 01:59:11;;;;;;;7.67;7.00;;;19.60;64.40;;;;;;4857378;29;20457;-81
2023/10/13 02:01:41;;;;;;;7.33;6.73;;;19.60;62.90;;;;;;4858024;29;20915;-81
2023/10/13 02:04:12;;;;;;;7.37;6.77;;;19.60;64.50;;;;;;4858640;29;20475;-80
2023/10/13 02:06:40;;;;;;;7.30;6.70;;;19.50;64.40;;;;;;4851584;29;20465;-80
2023/10/13 02:09:12;;;;;;;6.30;6.00;;;19.50;63.30;;;;;;4858005;29;20485;-80
2023/10/13 02:11:46;;;;;;;7.87;7.03;;;19.60;64.80;;;;;;4856155;29;20498;-81
2023/10/13 02:14:16;;;;;;;7.37;6.83;;;19.60;64.00;;;;;;4852666;29;20501;-80
2023/10/13 02:16:46;;;;;;;7.37;6.77;;;19.50;62.80;;;;;;4858544;29;20462;-80
2023/10/13 02:19:17;;;;;;;7.10;6.50;;;19.50;63.80;;;;;;4859667;29;20456;-80
2023/10/13 02:21:45;;;;;;;6.87;6.37;;;19.50;62.00;;;;;;4856690;29;20596;-81
2023/10/13 02:24:17;;;;;;;6.53;6.10;;;19.50;61.80;;;;;;4858649;29;20967;-81
2023/10/13 02:26:46;;;;;;;6.50;6.10;;;19.50;61.90;;;;;;4856785;29;20464;-80
2023/10/13 02:29:17;;;;;;;6.93;6.47;;;19.40;63.10;;;;;;4847999;29;20488;-79
2023/10/13 02:31:54;;;;;;;7.83;6.80;;;19.50;63.10;;;;;;4858570;29;20487;-80
2023/10/13 02:34:23;;;;;;;7.10;6.70;;;19.40;61.60;;;;;;4849300;29;20524;-80
2023/10/13 02:36:51;;;;;;;8.70;8.07;;;19.40;61.70;;;;;;4852723;29;20471;-80
2023/10/13 02:39:24;;;;;;;7.30;6.67;;;19.30;61.00;;;;;;4857455;29;20465;-80
2023/10/13 02:41:55;;;;;;;7.27;6.70;;;19.40;60.30;;;;;;4856691;29;21269;-80
2023/10/13 02:44:30;;;;;;;7.27;6.87;;;19.40;60.90;;;;;;4850529;29;20461;-79
2023/10/13 02:46:58;;;;;;;7.17;6.77;;;19.30;61.00;;;;;;4857214;29;20471;-81
2023/10/13 02:49:31;;;;;;;7.73;7.00;;;19.30;59.70;;;;;;4856883;29;20476;-80
2023/10/13 02:51:59;;;;;;;6.87;6.43;;;19.30;59.80;;;;;;4850995;29;20469;-79
2023/10/13 02:54:30;;;;;;;6.90;6.50;;;19.30;62.90;;;;;;4855856;29;20473;-79
2023/10/13 02:57:03;;;;;;;8.00;7.50;;;19.30;61.60;;;;;;4861070;29;20493;-81
2023/10/13 02:59:39;;;;;;;7.80;7.20;;;19.30;61.00;;;;;;4852860;29;20462;-80
2023/10/13 03:02:17;;;;;;;8.10;7.40;;;19.30;59.50;;;;;;4856834;29;20463;-80
2023/10/13 03:04:47;;;;;;;7.17;6.57;;;19.30;61.20;;;;;;4852400;29;20464;-80
2023/10/13 03:07:22;;;;;;;7.50;6.93;;;19.30;61.00;;;;;;4859885;29;20532;-80
2023/10/13 03:09:52;;;;;;;7.90;7.30;;;19.30;60.90;;;;;;4855415;29;20544;-79
2023/10/13 03:12:23;;;;;;;8.30;7.53;;;19.20;60.20;;;;;;4853585;29;20473;-80
2023/10/13 03:14:55;;;;;;;9.47;8.60;;;19.20;61.00;;;;;;4853797;29;20461;-79
2023/10/13 03:17:33;;;;;;;7.53;6.93;;;19.20;61.20;;;;;;4857399;29;20468;-79
2023/10/13 03:20:05;;;;;;;7.50;7.00;;;19.20;60.60;;;;;;4858497;29;20490;-80
2023/10/13 03:22:32;;;;;;;6.80;6.40;;;19.20;61.20;;;;;;4854573;29;20901;-80
2023/10/13 03:25:04;;;;;;;7.10;6.80;;;19.20;60.60;;;;;;4859610;29;20480;-79
2023/10/13 03:27:41;;;;;;;7.30;6.70;;;19.20;61.60;;;;;;4861777;29;20541;-80
2023/10/13 03:30:14;;;;;;;6.93;6.40;;;19.20;61.30;;;;;;4855687;29;21226;-80
2023/10/13 03:32:46;;;;;;;8.00;7.33;;;19.10;61.90;;;;;;4862827;29;20464;-80
2023/10/13 03:35:23;;;;;;;7.63;6.93;;;19.10;60.90;;;;;;4856618;29;20471;-80
2023/10/13 03:37:51;;;;;;;7.27;6.70;;;19.10;60.70;;;;;;4860216;29;20452;-81
2023/10/13 03:43:16;;;;;;;7.67;7.20;;;19.00;60.40;;;;;;5071134;28;20577;-81
2023/10/13 03:45:48;;;;;;;7.67;7.07;;;19.00;59.50;;;;;;5067611;28;21228;-80
2023/10/13 03:48:28;;;;;;;7.77;7.07;;;19.00;60.40;;;;;;5072847;28;20450;-81
2023/10/13 03:51:06;;;;;;;7.20;6.80;;;19.00;59.80;;;;;;5073914;28;23055;-80
2023/10/13 03:53:35;;;;;;;7.97;7.40;;;19.00;60.00;;;;;;5070797;28;20459;-80
2023/10/13 03:56:12;;;;;;;7.80;7.30;;;19.00;59.10;;;;;;5069093;28;20496;-81
2023/10/13 03:58:45;;;;;;;7.67;7.00;;;18.90;58.50;;;;;;5069827;28;20592;-81
2023/10/13 04:01:16;;;;;;;7.87;7.20;;;18.80;58.20;;;;;;5063219;28;20523;-81
2023/10/13 04:04:02;;;;;;;8.00;7.43;;;18.80;58.80;;;;;;5063482;28;20564;-80
2023/10/13 04:06:51;;;;;;;7.67;7.07;;;18.80;59.90;;;;;;5069703;28;20459;-80
2023/10/13 04:13:37;;;;;;;9.03;7.80;;;18.90;59.80;;;;;;5067827;28;20463;-80
2023/10/13 04:15:23;;;;;;;8.37;7.60;;;18.80;59.30;;;;;;5066449;28;20455;-78
2023/10/13 04:17:51;;;;;;;7.80;7.30;;;18.90;61.10;;;;;;5065829;28;20982;-77
2023/10/13 04:20:32;;;;;;;8.50;7.80;;;18.90;60.30;;;;;;5065541;28;20479;-78
2023/10/13 04:28:37;;;;;;;8.33;7.83;;;18.90;60.80;;;;;;5064581;28;20451;-78
2023/10/13 04:31:12;;;;;;;8.40;7.80;;;18.80;60.10;;;;;;5065769;28;21008;-77
2023/10/13 04:33:52;;;;;;;8.37;7.77;;;18.90;60.70;;;;;;5065594;28;20979;-74
2023/10/13 04:36:36;;;;;;;8.80;8.30;;;18.80;60.00;;;;;;5062084;28;20528;-76
2023/10/13 04:39:14;;;;;;;9.63;8.93;;;18.90;63.90;;;;;;5062809;28;20442;-79
2023/10/13 04:41:42;;;;;;;8.30;7.70;;;19.00;65.10;;;;;;5059573;28;20490;-79
2023/10/13 04:47:17;;;;;;;7.73;7.30;;;19.00;64.50;;;;;;5065085;28;20454;-83
2023/10/13 04:50:00;;;;;;;8.90;8.00;;;18.90;59.90;;;;;;5068307;28;20471;-83
2023/10/13 04:53:01;;;;;;;7.57;7.00;;;18.80;59.70;;;;;;5068715;28;20519;-83
2023/10/13 04:55:59;;;;;;;7.90;7.50;;;18.70;58.60;;;;;;5052226;28;20459;-83
2023/10/13 05:01:49;;;;;;;8.10;7.60;;;18.70;58.80;;;;;;5053006;28;20489;-84
2023/10/13 05:49:19;;;;;;;8.10;7.53;;;18.00;59.20;;;;;;5052682;28;20459;-82
2023/10/13 05:51:43;;;;;;;8.57;7.90;;;18.00;60.10;;;;;;5055577;28;20520;-83
2023/10/13 06:30:09;;;;;;;8.40;7.80;;;18.60;66.00;;;;;;5051843;28;20476;-83
2023/10/13 06:32:39;;;;;;;8.67;7.80;;;18.60;66.20;;;;;;5054463;28;20481;-80
2023/10/13 06:35:08;;;;;;;8.83;8.20;;;18.60;65.60;;;;;;5053975;28;20543;-82
2023/10/13 06:37:41;;;;;;;9.47;8.67;;;18.60;69.20;;;;;;5055100;28;20814;-83
2023/10/13 06:40:22;;;;;;;9.47;7.53;;;18.60;65.90;;;;;;5055641;28;20482;-83
2023/10/13 06:42:53;;;;;;;8.17;7.47;;;18.70;66.20;;;;;;5052707;28;20482;-83
2023/10/13 06:45:21;;;;;;;8.60;8.00;;;18.70;66.80;;;;;;5051939;28;20475;-83
2023/10/13 06:47:53;;;;;;;8.63;8.13;;;18.70;66.00;;;;;;5051878;28;20451;-83
2023/10/13 06:50:24;;;;;;;8.87;8.23;;;18.80;67.30;;;;;;5053653;28;20467;-83
2023/10/13 06:52:54;;;;;;;8.83;8.10;;;18.80;65.10;;;;;;5048760;28;20490;-83
2023/10/13 06:55:27;;;;;;;8.17;7.50;;;18.80;65.80;;;;;;5049055;28;20944;-82
2023/10/13 06:57:59;;;;;;;7.57;7.07;;;18.90;65.90;;;;;;5052856;28;20440;-82
2023/10/13 07:00:29;;;;;;;8.10;7.40;;;18.90;66.80;;;;;;5051824;28;21185;-83
2023/10/13 07:03:05;;;;;;;9.03;7.30;;;18.90;67.40;;;;;;5051900;28;20479;-83
2023/10/13 07:05:38;;;;;;;10.70;8.20;;;18.90;67.30;;;;;;5050850;28;21301;-83
2023/10/13 07:08:08;;;;;;;7.40;7.10;;;19.00;68.00;;;;;;5048679;28;20459;-82
2023/10/13 07:10:48;;;;;;;8.53;7.90;;;19.00;69.10;;;;;;5055027;28;20463;-82
2023/10/13 07:13:19;;;;;;;9.47;7.13;;;19.00;70.20;;;;;;5056124;28;20455;-83
2023/10/13 07:15:47;;;;;;;7.93;7.30;;;19.10;89.20;;;;;;5053404;28;20456;-83
2023/10/13 07:18:18;;;;;;;7.90;7.20;;;19.10;70.80;;;;;;5051658;28;20870;-83
2023/10/13 07:20:46;;;;;;;6.90;6.30;;;19.20;71.20;;;;;;5053230;28;20468;-83
2023/10/13 07:23:19;;;;;;;7.60;7.13;;;19.30;72.80;;;;;;5052866;28;20503;-83
2023/10/13 07:25:57;;;;;;;8.10;7.27;;;19.40;73.60;;;;;;5051630;28;20479;-83
2023/10/13 07:28:27;;;;;;;7.50;6.93;;;19.50;77.30;;;;;;5049546;28;20545;-83
2023/10/13 07:31:11;;;;;;;7.90;7.27;;;19.70;77.00;;;;;;5053600;28;20991;-83
2023/10/13 07:33:41;;;;;;;7.90;7.30;;;19.90;79.40;;;;;;5053860;28;20577;-83
2023/10/13 07:36:17;;;;;;;19.23;8.83;;;20.20;84.00;;;;;;5051660;28;20860;-84
2023/10/13 07:38:59;;;;;;;7.90;7.27;;;20.10;82.90;;;;;;5053642;28;20657;-83
2023/10/13 07:41:51;;;;;;;7.97;7.17;;;20.10;82.20;;;;;;5048994;28;20482;-83
2023/10/13 07:44:24;;;;;;;8.27;7.80;;;20.10;84.20;;;;;;5051685;28;20476;-84
2023/10/13 07:46:59;;;;;;;7.87;7.40;;;20.10;84.60;;;;;;5051539;28;20460;-83
2023/10/13 07:49:31;;;;;;;9.40;8.70;;;20.50;89.50;;;;;;5052122;28;20524;-83
2023/10/13 07:52:14;;;;;;;8.37;7.57;;;20.90;92.80;;;;;;5051693;28;20909;-83
2023/10/13 07:54:47;;;;;;;8.47;7.87;;;21.10;94.30;;;;;;5051706;28;20446;-84
2023/10/13 07:57:17;;;;;;;8.97;8.00;;;21.10;99.90;;;;;;5053512;28;20529;-83
2023/10/13 07:59:51;;;;;;;8.50;8.00;;;21.20;92.50;;;;;;5047898;28;20543;-83
2023/10/13 08:05:25;;;;;;;9.03;8.20;;;22.00;96.40;;;;;;5109784;27;21360;-83
2023/10/13 08:07:55;;;;;;;11.43;8.63;;;22.60;99.90;;;;;;5113149;27;20441;-81
2023/10/13 08:10:29;;;;;;;8.67;7.70;;;23.00;99.90;;;;;;5111545;28;20602;-81
2023/10/13 08:12:58;;;;;;;8.10;7.57;;;23.30;99.90;;;;;;5105018;27;21173;-82
2023/10/13 08:15:33;;;;;;;8.23;7.67;;;23.80;99.90;;;;;;5107971;27;20585;-82
2023/10/13 08:18:06;;;;;;;10.30;6.90;;;24.30;99.90;;;;;;5105644;28;20562;-83
2023/10/13 08:20:41;;;;;;;7.00;6.40;;;24.80;99.90;;;;;;5111278;28;21021;-83
2023/10/13 08:23:20;;;;;;;7.27;6.53;;;25.10;99.90;;;;;;5110598;28;20548;-82
2023/10/13 08:31:26;;;;;;;7.83;7.30;;;26.40;99.90;;;;;;5110893;28;21013;-82
2023/10/13 08:34:05;;;;;;;6.33;5.77;;;26.80;99.90;;;;;;5113736;28;20896;-82
2023/10/13 08:36:38;;;;;;;7.17;5.87;;;27.20;99.90;;;;;;5117980;28;20473;-81
2023/10/13 08:39:57;;;;;;;6.83;6.43;;;27.60;99.90;;;;;;5112796;27;20538;-82
2023/10/13 08:42:11;;;;;;;9.60;5.70;;;27.80;99.90;;;;;;5109104;28;20454;-82
2023/10/13 08:44:47;;;;;;;5.73;5.33;;;27.90;99.90;;;;;;5111630;28;21158;-82
2023/10/13 08:47:19;;;;;;;7.60;6.97;;;28.10;99.90;;;;;;5102832;27;20441;-82
2023/10/13 08:49:52;;;;;;;8.20;7.80;;;28.40;99.90;;;;;;5112009;28;20453;-83
2023/10/13 08:52:45;;;;;;;7.83;7.23;;;28.40;99.90;;;;;;5113218;28;20475;-82
2023/10/13 08:58:02;;;;;;;7.63;6.50;;;28.40;99.90;;;;;;5110275;28;20977;-82
2023/10/13 09:03:29;;;;;;;6.53;6.07;;;28.60;99.90;;;;;;5111334;27;20467;-83
2023/10/13 09:06:00;;;;;;;7.83;6.50;;;28.80;99.90;;;;;;5109386;28;20454;-83
2023/10/13 09:08:44;;;;;;;6.77;6.20;;;29.30;99.90;;;;;;5118771;28;20457;-83
2023/10/13 09:11:12;;;;;;;6.50;5.90;;;29.60;99.90;;;;;;5112922;28;20478;-83
2023/10/13 09:13:48;;;;;;;5.93;5.53;;;29.90;99.90;;;;;;5113784;28;20562;-83
2023/10/13 09:16:17;;;;;;;7.40;5.43;;;29.80;99.90;;;;;;5097440;28;20491;-84
2023/10/13 09:18:50;;;;;;;6.00;5.50;;;30.30;99.90;;;;;;5093981;28;20459;-84
2023/10/13 09:21:43;;;;;;;6.43;5.93;;;30.70;99.90;;;;;;5096519;28;20464;-83
2023/10/13 09:27:01;;;;;;;8.17;7.47;;;30.70;99.90;;;;;;5097219;28;20450;-83
2023/10/13 09:29:29;;;;;;;6.53;5.93;;;30.50;99.90;;;;;;5097563;28;20436;-83
2023/10/13 09:32:03;;;;;;;6.93;6.43;;;30.30;99.90;;;;;;5095178;28;20464;-83
2023/10/13 09:34:33;;;;;;;8.10;7.10;;;30.50;99.90;;;;;;5093527;28;20444;-84
2023/10/13 09:37:04;;;;;;;7.90;7.10;;;30.30;99.90;;;;;;5096861;27;20464;-83
2023/10/13 09:42:23;;;;;;;6.40;5.30;;;29.50;99.90;;;;;;5091704;28;20444;-84
2023/10/13 09:44:55;;;;;;;7.00;6.40;;;28.90;99.90;;;;;;5096230;28;21031;-83
2023/10/13 09:47:32;;;;;;;6.20;5.70;;;28.90;99.90;;;;;;5094787;28;20525;-83
2023/10/13 09:50:05;;;;;;;7.00;6.20;;;29.00;99.90;;;;;;5096468;28;20567;-82
2023/10/13 09:52:37;;;;;;;5.03;4.63;;;29.10;99.90;;;;;;5093885;28;20462;-82
2023/10/13 09:55:21;;;;;;;5.07;4.73;;;29.20;99.90;;;;;;5095963;28;21125;-84
2023/10/13 09:57:58;;;;;;;7.17;6.10;;;29.20;99.90;;;;;;5103623;28;20484;-82
2023/10/13 10:00:46;;;;;;;7.63;5.60;;;29.20;99.90;;;;;;5097679;27;20476;-83
2023/10/13 10:03:30;;;;;;;8.10;6.03;;;29.50;99.90;;;;;;5093896;28;20522;-83
2023/10/13 10:06:06;;;;;;;6.30;5.80;;;29.60;99.90;;;;;;5091667;28;20565;-83
2023/10/13 10:08:34;;;;;;;6.50;6.00;;;29.60;99.90;;;;;;5095987;28;20450;-83
2023/10/13 10:11:40;;;;;;;9.40;5.70;;;29.50;99.90;;;;;;5099848;28;20472;-83
2023/10/13 10:14:14;;;;;;;6.03;5.53;;;29.40;99.90;;;;;;5095794;28;20451;-83
2023/10/13 10:16:59;;;;;;;5.40;5.10;;;29.60;99.90;;;;;;5096799;28;20455;-83
2023/10/13 10:19:35;;;;;;;6.23;5.83;;;29.80;99.90;;;;;;5095244;28;20471;-83
2023/10/13 10:22:16;;;;;;;6.83;5.87;;;29.70;99.90;;;;;;5096911;28;20447;-83
2023/10/13 10:24:46;;;;;;;6.53;5.47;;;29.60;99.90;;;;;;5095579;28;20480;-84
2023/10/13 10:27:25;;;;;;;6.23;5.80;;;29.80;99.90;;;;;;5093761;28;20448;-83
2023/10/13 10:29:57;;;;;;;6.67;5.20;;;29.60;99.90;;;;;;5095720;28;21195;-83
2023/10/13 10:32:34;;;;;;;7.73;5.70;;;29.40;99.90;;;;;;5094846;28;21047;-83
2023/10/13 10:35:08;;;;;;;5.23;4.93;;;29.50;99.90;;;;;;5095410;28;20505;-83
2023/10/13 10:37:43;;;;;;;4.70;4.33;;;29.50;99.90;;;;;;5097898;27;20462;-83
2023/10/13 10:40:31;;;;;;;7.97;5.73;;;29.70;99.90;;;;;;5097241;28;20459;-83
2023/10/13 10:43:03;;;;;;;5.50;5.00;;;29.90;99.90;;;;;;5095224;28;20453;-83
2023/10/13 10:45:50;;;;;;;9.80;5.40;;;30.00;99.90;;;;;;5095277;28;20595;-84
2023/10/13 10:48:20;;;;;;;5.70;5.13;;;29.90;99.90;;;;;;5095080;28;20460;-84
2023/10/13 10:50:54;;;;;;;4.90;4.60;;;29.80;99.90;;;;;;5096615;28;20479;-84
2023/10/13 10:53:33;;;;;;;5.90;5.50;;;29.70;99.90;;;;;;5095158;28;20462;-83
2023/10/13 10:56:19;;;;;;;5.40;4.93;;;29.60;99.90;;;;;;5089674;27;20458;-83
2023/10/13 10:58:54;;;;;;;6.30;5.50;;;29.80;99.90;;;;;;5092008;27;20493;-83
2023/10/13 11:01:23;;;;;;;5.83;5.53;;;30.20;99.90;;;;;;5093849;28;20482;-83
2023/10/13 11:03:57;;;;;;;6.67;5.90;;;30.40;99.90;;;;;;5090288;28;20503;-83
2023/10/13 11:06:27;;;;;;;5.87;5.40;;;30.50;99.90;;;;;;5090517;28;20476;-83
2023/10/13 11:09:18;;;;;;;5.23;4.83;;;30.50;99.90;;;;;;5094918;28;20815;-82
2023/10/13 11:11:52;;;;;;;5.07;4.77;;;30.30;99.90;;;;;;5094070;28;21694;-83
2023/10/13 11:14:26;;;;;;;6.90;6.30;;;29.90;99.90;;;;;;5091840;28;20448;-83
2023/10/13 11:16:59;;;;;;;5.30;4.80;;;29.60;99.90;;;;;;5093972;28;20487;-82
2023/10/13 11:19:39;;;;;;;5.53;5.23;;;29.30;99.90;;;;;;5099290;28;20441;-82
2023/10/13 11:22:29;;;;;;;6.20;5.60;;;29.10;99.50;;;;;;5092442;28;20450;-81
2023/10/13 11:24:59;;;;;;;7.13;5.73;;;28.90;98.90;;;;;;5094859;28;20803;-83
2023/10/13 11:27:56;;;;;;;6.60;5.70;;;28.70;97.40;;;;;;5090662;28;21035;-82
2023/10/13 11:30:29;;;;;;;7.20;5.30;;;28.60;97.10;;;;;;5091378;28;20466;-82
2023/10/13 11:32:59;;;;;;;7.10;6.60;;;28.70;96.90;;;;;;5091260;28;20464;-82
2023/10/13 11:35:48;;;;;;;10.13;6.10;;;28.70;99.90;;;;;;5090739;28;20460;-82
2023/10/13 11:38:25;;;;;;;6.93;6.40;;;28.80;98.60;;;;;;5095347;28;20454;-83
2023/10/13 11:41:08;;;;;;;5.68;5.05;;;28.90;99.30;;;;;;5091408;28;20811;-82
2023/10/13 11:43:52;;;;;;;6.07;5.60;;;28.90;98.80;;;;;;5094327;28;20221;-83
2023/10/13 11:49:18;;;;;;;6.67;4.90;;;28.50;96.20;;;;;;5087398;28;20452;-85
2023/10/13 11:51:48;;;;;;;6.43;5.20;;;28.70;97.10;;;;;;5095889;28;20476;-84
2023/10/13 11:54:17;;;;;;;5.30;4.80;;;28.70;97.30;;;;;;5092860;28;20484;-84
2023/10/13 11:56:47;;;;;;;6.30;5.80;;;28.50;95.40;;;;;;5094130;28;20444;-84
2023/10/13 11:59:19;;;;;;;5.50;5.10;;;28.50;95.90;;;;;;5093400;28;20452;-84
2023/10/13 12:04:40;;;;;;;6.83;4.97;;;28.70;96.70;;;;;;5092895;28;20482;-83
2023/10/13 12:07:17;;;;;;;5.63;5.23;;;28.80;99.90;;;;;;5090826;28;20450;-83
2023/10/13 12:12:40;;;;;;;5.63;5.10;;;28.80;97.40;;;;;;5097585;28;20453;-83
2023/10/13 12:15:25;;;;;;;5.50;5.10;;;28.80;97.70;;;;;;5095372;28;20462;-83
2023/10/13 12:17:57;;;;;;;5.57;5.00;;;28.70;96.50;;;;;;5094572;28;20473;-84
2023/10/13 12:20:34;;;;;;;5.40;4.90;;;28.60;96.00;;;;;;5095968;28;20469;-84
2023/10/13 12:23:17;;;;;;;6.27;5.50;;;28.50;95.40;;;;;;5095613;28;20825;-84
2023/10/13 12:25:54;;;;;;;6.83;4.57;;;28.40;95.50;;;;;;5093839;28;20472;-83
2023/10/13 12:28:26;;;;;;;6.57;4.03;;;28.50;95.10;;;;;;5093162;28;20541;-84
2023/10/13 12:30:58;;;;;;;6.17;4.30;;;28.40;93.90;;;;;;5094151;28;20463;-84
2023/10/13 12:33:36;;;;;;;7.47;5.70;;;28.40;94.30;;;;;;5095143;28;20535;-83
2023/10/13 12:36:14;;;;;;;4.03;3.70;;;28.50;94.20;;;;;;5096240;28;20484;-83
2023/10/13 12:49:59;;;;;;;5.33;3.43;;;28.50;94.00;;;;;;5093361;28;20440;-83
2023/10/13 12:52:31;;;;;;;5.93;3.70;;;28.60;95.40;;;;;;5096041;28;20457;-83
2023/10/13 12:55:06;;;;;;;5.43;3.37;;;28.70;95.80;;;;;;5095759;28;21156;-83
2023/10/13 12:57:42;;;;;;;7.17;4.27;;;28.70;94.80;;;;;;5099464;28;20435;-83
2023/10/13 13:00:23;;;;;;;4.50;4.20;;;28.60;94.30;;;;;;5096706;28;20471;-83
2023/10/13 13:02:55;;;;;;;4.90;4.10;;;28.60;93.10;;;;;;5096364;27;21226;-85
2023/10/13 13:05:29;;;;;;;4.43;4.13;;;28.60;93.60;;;;;;5099618;28;20444;-83
2023/10/13 13:07:58;;;;;;;4.10;3.83;;;28.60;94.50;;;;;;5095357;28;20452;-84
2023/10/13 13:10:38;;;;;;;4.87;4.43;;;28.60;99.90;;;;;;5095011;28;20765;-84
2023/10/13 13:13:07;;;;;;;4.53;3.77;;;28.50;92.80;;;;;;5097084;28;20448;-84
2023/10/13 13:15:35;;;;;;;4.43;4.07;;;28.40;92.50;;;;;;5086955;28;20538;-85
2023/10/13 13:18:11;;;;;;;7.90;4.40;;;28.40;91.80;;;;;;5090889;27;20540;-83
2023/10/13 13:20:52;;;;;;;4.30;4.00;;;28.40;92.30;;;;;;5088837;28;20897;-83
2023/10/13 13:23:25;;;;;;;5.63;3.80;;;28.50;93.00;;;;;;5088436;27;20455;-83
2023/10/13 13:25:56;;;;;;;4.37;4.00;;;28.30;89.50;;;;;;5090628;28;20956;-83
2023/10/13 13:28:28;;;;;;;4.17;3.87;;;28.30;90.10;;;;;;5098670;28;20989;-84
2023/10/13 13:30:58;;;;;;;4.27;3.40;;;28.20;89.40;;;;;;5098706;28;20484;-84
2023/10/13 13:33:26;;;;;;;4.10;3.57;;;28.20;89.30;;;;;;5093351;28;20987;-83
2023/10/13 13:35:59;;;;;;;6.67;4.10;;;28.10;87.70;;;;;;5095769;28;20851;-83
2023/10/13 13:38:31;;;;;;;4.37;4.03;;;28.10;88.50;;;;;;5094036;28;20456;-83
2023/10/13 13:41:02;;;;;;;5.10;4.80;;;28.20;89.60;;;;;;5095717;28;20473;-83
2023/10/13 13:43:38;;;;;;;5.00;4.10;;;28.20;90.10;;;;;;5093481;28;20767;-83
2023/10/13 13:46:10;;;;;;;5.70;4.07;;;28.30;90.60;;;;;;5093636;28;20533;-83
2023/10/13 13:48:39;;;;;;;4.80;4.07;;;28.20;89.60;;;;;;5095938;28;20451;-83
2023/10/13 13:51:14;;;;;;;7.30;5.00;;;28.20;89.80;;;;;;5096434;28;20537;-83
2023/10/13 13:53:45;;;;;;;4.17;3.60;;;28.00;84.80;;;;;;5092822;28;20460;-82
2023/10/13 13:56:16;;;;;;;5.47;4.70;;;28.00;84.30;;;;;;5096486;28;20562;-83
2023/10/13 13:58:45;;;;;;;4.97;4.40;;;28.00;84.60;;;;;;5100506;28;20529;-82
2023/10/13 14:01:14;;;;;;;9.20;5.60;;;28.00;83.70;;;;;;5098846;28;20587;-82
2023/10/13 14:03:46;;;;;;;4.77;4.37;;;28.00;84.40;;;;;;5095109;28;20506;-83
2023/10/13 14:06:22;;;;;;;4.53;4.13;;;28.00;86.00;;;;;;5095673;28;20504;-83
2023/10/13 14:08:54;;;;;;;5.70;5.00;;;27.90;82.60;;;;;;5094898;28;20487;-82
2023/10/13 14:14:28;;;;;;;6.90;4.40;;;27.80;82.00;;;;;;5094009;28;20491;-82
2023/10/13 14:17:03;;;;;;;5.63;4.23;;;27.80;83.60;;;;;;5095462;28;20452;-79
2023/10/13 14:19:32;;;;;;;5.00;4.47;;;27.70;79.80;;;;;;5095506;28;20490;-79
2023/10/13 14:22:06;;;;;;;5.13;4.53;;;27.60;80.40;;;;;;5087683;28;20461;-79
2023/10/13 14:24:43;;;;;;;4.67;4.23;;;27.70;79.80;;;;;;5089189;28;20485;-79
2023/10/13 14:27:15;;;;;;;4.57;4.20;;;27.60;80.60;;;;;;5093216;28;20494;-79
2023/10/13 14:29:44;;;;;;;4.80;3.73;;;27.60;78.90;;;;;;5095462;28;20467;-79
2023/10/13 14:32:14;;;;;;;4.00;3.80;;;27.60;80.20;;;;;;5093197;28;20460;-78
2023/10/13 14:34:45;;;;;;;5.00;4.20;;;27.60;79.30;;;;;;5095409;28;21253;-80
2023/10/13 14:37:26;;;;;;;4.43;4.23;;;27.50;78.00;;;;;;5092921;28;20448;-79
2023/10/13 14:39:56;;;;;;;8.47;5.20;;;27.50;76.70;;;;;;5093866;28;20482;-79
2023/10/13 14:42:26;;;;;;;3.80;3.60;;;27.50;74.70;;;;;;5094383;28;20452;-80
2023/10/13 14:44:56;;;;;;;3.93;3.73;;;27.50;73.50;;;;;;5095156;28;20517;-79
2023/10/13 14:47:25;;;;;;;4.83;3.33;;;27.40;72.90;;;;;;5094129;28;20463;-79
2023/10/13 14:49:55;;;;;;;4.70;4.30;;;27.40;72.40;;;;;;5094887;28;20448;-80
2023/10/13 14:52:25;;;;;;;4.00;3.50;;;27.50;73.50;;;;;;5094896;28;20471;-79
2023/10/13 14:54:56;;;;;;;6.10;4.00;;;27.40;73.30;;;;;;5087987;28;20469;-80
2023/10/13 14:57:25;;;;;;;4.20;3.80;;;27.40;72.20;;;;;;5091032;28;20491;-80
2023/10/13 14:59:54;;;;;;;4.30;4.00;;;27.40;70.60;;;;;;5096914;28;22518;-80
2023/10/13 15:02:22;;;;;;;5.73;4.23;;;27.40;71.90;;;;;;5090975;28;20454;-80
2023/10/13 15:04:51;;;;;;;5.40;3.97;;;27.40;71.30;;;;;;5091180;28;20518;-79
2023/10/13 15:07:20;;;;;;;7.67;3.90;;;27.40;72.30;;;;;;5092533;28;20476;-80
2023/10/13 15:09:49;;;;;;;4.53;3.97;;;27.30;69.50;;;;;;5092414;28;20448;-79
2023/10/13 15:12:20;;;;;;;4.63;3.10;;;27.20;71.20;;;;;;5089609;28;20460;-78
2023/10/13 15:14:56;;;;;;;3.33;3.10;;;27.20;68.20;;;;;;5090098;28;20468;-79
2023/10/13 15:17:24;;;;;;;5.00;3.90;;;27.20;70.40;;;;;;5091993;28;20456;-79
2023/10/13 15:19:52;;;;;;;4.30;4.00;;;27.20;69.10;;;;;;5092789;28;20456;-79
2023/10/13 15:22:26;;;;;;;7.73;4.10;;;27.20;68.60;;;;;;5093721;28;20546;-80
2023/10/13 15:25:08;;;;;;;3.00;2.80;;;27.10;67.20;;;;;;5091772;28;20469;-78
2023/10/13 15:27:41;;;;;;;3.00;2.80;;;27.10;64.50;;;;;;5091212;27;20468;-79
2023/10/13 15:30:20;;;;;;;5.60;3.67;;;27.00;64.50;;;;;;5089440;28;20587;-78
2023/10/13 15:32:48;;;;;;;3.60;3.40;;;27.00;63.20;;;;;;5091544;28;20485;-79
2023/10/13 15:35:18;;;;;;;5.13;3.70;;;26.90;64.10;;;;;;5086300;28;21179;-79
2023/10/13 15:37:48;;;;;;;4.43;3.50;;;26.90;61.90;;;;;;5093569;28;21029;-78
2023/10/13 15:40:18;;;;;;;3.90;3.60;;;26.90;63.00;;;;;;5086498;28;20464;-79
2023/10/13 15:42:46;;;;;;;3.40;3.07;;;26.90;61.40;;;;;;5090221;28;20446;-79